createdAt,value
2023-02-27T00:02:18.432Z,102060.00
2023-02-27T00:07:25.967Z,102065.41
2023-02-27T00:12:30.676Z,102064.75
2023-02-27T00:17:35.598Z,102056.03
2023-02-27T00:22:39.172Z,102060.38
2023-02-27T00:27:43.101Z,102056.03
2023-02-27T00:32:48.062Z,102067.38
2023-02-27T00:37:51.527Z,102074.53
2023-02-27T00:42:55.323Z,102056.63
2023-02-27T00:48:00.271Z,102056.97
2023-02-27T00:53:03.843Z,102059.50
2023-02-27T00:58:07.864Z,102064.72
2023-02-27T01:03:12.728Z,102066.44
2023-02-27T01:08:16.232Z,102071.75
2023-02-27T01:13:19.695Z,102069.25
2023-02-27T01:18:24.708Z,102060.53
2023-02-27T01:23:28.239Z,102062.47
2023-02-27T01:28:31.740Z,102074.75
2023-02-27T01:33:36.676Z,102053.84
2023-02-27T01:38:40.139Z,102053.03
2023-02-27T01:43:57.787Z,102059.16
2023-02-27T01:49:05.471Z,102051.38
2023-02-27T01:54:10.660Z,102043.66
2023-02-27T01:59:15.120Z,102046.97
2023-02-27T02:04:23.780Z,102051.38
2023-02-27T02:09:27.505Z,102058.38
2023-02-27T02:14:31.134Z,102060.47
2023-02-27T02:20:01.353Z,102058.25
2023-02-27T02:25:46.987Z,102052.88
2023-02-27T02:31:33.654Z,102053.00
2023-02-27T02:37:18.237Z,102049.38
2023-02-27T02:42:26.595Z,102044.16
2023-02-27T02:47:35.515Z,102041.44
2023-02-27T02:52:45.772Z,102043.28
2023-02-27T02:57:53.946Z,102049.47
2023-02-27T03:03:00.769Z,102054.81
2023-02-27T03:08:16.738Z,102057.53
2023-02-27T03:13:30.569Z,102056.81
2023-02-27T03:18:36.138Z,102057.69
2023-02-27T03:23:45.066Z,102068.19
2023-02-27T03:28:56.368Z,102077.00
2023-02-27T03:34:03.883Z,102072.88
2023-02-27T03:39:11.921Z,102077.16
2023-02-27T03:44:24.737Z,102080.72
2023-02-27T03:49:28.376Z,102077.38
2023-02-27T03:54:35.784Z,102071.31
2023-02-27T03:59:40.684Z,102076.50
2023-02-27T04:04:44.372Z,102080.94
2023-02-27T04:10:07.446Z,102094.25
2023-02-27T04:15:17.941Z,102103.75
2023-02-27T04:20:39.165Z,102107.16
2023-02-27T04:25:55.856Z,102102.81
2023-02-27T04:31:06.702Z,102110.72
2023-02-27T04:36:14.952Z,102113.28
2023-02-27T04:41:22.294Z,102113.38
2023-02-27T04:46:29.458Z,102116.81
2023-02-27T04:51:36.668Z,102115.09
2023-02-27T04:56:43.787Z,102110.66
2023-02-27T05:01:53.911Z,102120.22
2023-02-27T05:06:57.861Z,102126.38
2023-02-27T05:12:04.344Z,102130.81
2023-02-27T05:17:11.167Z,102116.06
2023-02-27T05:22:25.502Z,102130.03
2023-02-27T05:27:34.371Z,102137.88
2023-02-27T05:32:43.175Z,102142.13
2023-02-27T05:37:49.631Z,102133.41
2023-02-27T05:42:58.928Z,102134.84
2023-02-27T05:48:06.226Z,102145.19
2023-02-27T05:53:12.999Z,102143.38
2023-02-27T05:58:20.322Z,102137.88
2023-02-27T06:03:26.126Z,102144.53
2023-02-27T06:08:30.097Z,102154.81
2023-02-27T06:13:33.951Z,102165.22
2023-02-27T06:18:39.294Z,102167.44
2023-02-27T06:23:45.195Z,102166.19
2023-02-27T06:28:48.819Z,102172.72
2023-02-27T06:33:55.698Z,102178.47
2023-02-27T06:38:59.362Z,102177.59
2023-02-27T06:44:02.968Z,102180.75
2023-02-27T06:49:08.023Z,102184.00
2023-02-27T06:54:11.528Z,102181.28
2023-02-27T06:59:15.398Z,102186.09
2023-02-27T07:04:20.812Z,102193.44
2023-02-27T07:09:24.566Z,102197.72
2023-02-27T07:14:28.070Z,102195.00
2023-02-27T07:19:36.040Z,102199.13
2023-02-27T07:24:39.570Z,102200.03
2023-02-27T07:29:43.285Z,102198.44
2023-02-27T07:34:48.251Z,102199.78
2023-02-27T07:39:51.703Z,102199.13
2023-02-27T07:44:55.157Z,102198.59
2023-02-27T07:50:00.156Z,102202.88
2023-02-27T07:55:03.738Z,102200.03
2023-02-27T08:00:09.509Z,102198.81
2023-02-27T08:05:17.365Z,102186.91
2023-02-27T08:10:21.183Z,102192.47
2023-02-27T08:15:24.742Z,102198.25
2023-02-27T08:20:29.778Z,102202.66
2023-02-27T08:25:33.492Z,102209.41
2023-02-27T08:30:37.202Z,102207.63
2023-02-27T08:35:42.621Z,102227.53
2023-02-27T08:40:46.446Z,102226.25
2023-02-27T08:45:50.285Z,102220.91
2023-02-27T08:50:57.469Z,102210.78
2023-02-27T08:56:01.364Z,102209.97
2023-02-27T09:01:05.202Z,102211.66
2023-02-27T09:06:10.394Z,102210.72
2023-02-27T09:11:14.035Z,102218.00
2023-02-27T09:16:17.472Z,102226.34
2023-02-27T09:21:22.688Z,102223.06
2023-02-27T09:26:40.782Z,102226.84
2023-02-27T09:31:47.167Z,102228.06
2023-02-27T09:36:52.141Z,102216.59
2023-02-27T09:42:01.338Z,102218.56
2023-02-27T09:47:05.699Z,102224.44
2023-02-27T09:52:14.387Z,102231.06
2023-02-27T09:57:22.494Z,102224.13
2023-02-27T10:02:44.282Z,102219.16
2023-02-27T10:07:55.049Z,102212.69
2023-02-27T10:13:09.896Z,102211.41
2023-02-27T10:18:27.040Z,102216.47
2023-02-27T10:23:37.540Z,102211.78
2023-02-27T10:28:41.078Z,102217.09
2023-02-27T10:33:48.038Z,102224.03
2023-02-27T10:38:56.270Z,102222.63
2023-02-27T10:44:01.145Z,102223.41
2023-02-27T10:49:14.222Z,102225.28
2023-02-27T10:54:23.450Z,102220.56
2023-02-27T10:59:28.687Z,102216.47
2023-02-27T11:04:34.161Z,102214.56
2023-02-27T11:09:39.038Z,102220.06
2023-02-27T11:14:51.129Z,102202.59
2023-02-27T11:19:58.573Z,102203.13
2023-02-27T11:25:21.265Z,102202.69
2023-02-27T11:30:27.948Z,102196.13
2023-02-27T11:35:34.238Z,102191.72
2023-02-27T11:40:41.592Z,102198.06
2023-02-27T11:46:05.177Z,102193.25
2023-02-27T11:51:34.874Z,102193.00
2023-02-27T11:56:44.152Z,102186.44
2023-02-27T12:01:50.527Z,102190.88
2023-02-27T12:06:57.638Z,102194.69
2023-02-27T12:12:04.500Z,102174.84
2023-02-27T12:17:13.290Z,102178.19
2023-02-27T12:22:22.120Z,102179.44
2023-02-27T12:27:30.902Z,102176.44
2023-02-27T12:32:40.409Z,102182.16
2023-02-27T12:37:43.923Z,102181.34
2023-02-27T12:43:06.578Z,102195.06
2023-02-27T12:48:18.421Z,102193.69
2023-02-27T12:53:49.057Z,102188.38
2023-02-27T12:59:01.104Z,102181.13
2023-02-27T13:04:08.280Z,102183.56
2023-02-27T13:09:26.209Z,102171.81
2023-02-27T13:14:38.916Z,102181.34
2023-02-27T13:19:46.065Z,102182.63
2023-02-27T13:24:51.316Z,102178.34
2023-02-27T13:30:06.644Z,102170.59
2023-02-27T13:35:21.221Z,102163.09
2023-02-27T13:40:30.907Z,102165.69
2023-02-27T13:45:53.501Z,102172.66
2023-02-27T13:50:57.066Z,102179.75
2023-02-27T13:56:20.537Z,102178.59
2023-02-27T14:01:28.851Z,102173.28
2023-02-27T14:06:32.780Z,102167.41
2023-02-27T14:11:39.869Z,102176.94
2023-02-27T14:16:59.263Z,102174.78
2023-02-27T14:22:04.368Z,102168.81
2023-02-27T14:27:17.878Z,102171.75
2023-02-27T14:32:25.048Z,102178.41
2023-02-27T14:37:28.918Z,102179.19
2023-02-27T14:42:45.911Z,102177.06
2023-02-27T14:47:50.897Z,102181.59
2023-02-27T14:52:54.714Z,102182.75
2023-02-27T14:58:00.555Z,102176.50
2023-02-27T15:03:17.853Z,102178.75
2023-02-27T15:08:26.323Z,102179.84
2023-02-27T15:13:31.672Z,102191.84
2023-02-27T15:18:40.914Z,102194.06
2023-02-27T15:23:44.694Z,102191.44
2023-02-27T15:28:49.630Z,102199.34
2023-02-27T15:33:54.581Z,102203.44
2023-02-27T15:39:15.204Z,102200.59
2023-02-27T15:44:24.926Z,102196.56
2023-02-27T15:49:30.017Z,102199.47
2023-02-27T15:54:34.972Z,102199.47
2023-02-27T15:59:41.896Z,102200.78
2023-02-27T16:04:47.831Z,102203.13
2023-02-27T16:09:54.679Z,102206.34
2023-02-27T16:15:24.317Z,102219.25
2023-02-27T16:20:44.152Z,102218.25
2023-02-27T16:26:02.130Z,102220.34
2023-02-27T16:31:06.412Z,102222.88
2023-02-27T16:36:17.625Z,102233.25
2023-02-27T16:41:22.870Z,102234.06
2023-02-27T16:46:26.652Z,102240.22
2023-02-27T16:51:34.606Z,102239.34
2023-02-27T16:56:41.290Z,102249.81
2023-02-27T17:01:44.880Z,102249.66
2023-02-27T17:06:49.763Z,102252.00
2023-02-27T17:11:55.792Z,102260.66
2023-02-27T17:16:59.366Z,102267.06
2023-02-27T17:22:04.173Z,102267.94
2023-02-27T17:27:08.600Z,102266.03
2023-02-27T17:32:12.117Z,102280.75
2023-02-27T17:37:17.098Z,102277.66
2023-02-27T17:42:20.684Z,102271.31
2023-02-27T17:47:24.182Z,102278.97
2023-02-27T17:52:29.141Z,102288.81
2023-02-27T17:57:35.895Z,102287.81
2023-02-27T18:02:39.419Z,102285.00
2023-02-27T18:07:44.252Z,102278.94
2023-02-27T18:12:48.057Z,102288.81
2023-02-27T18:17:51.524Z,102283.03
2023-02-27T18:23:03.561Z,102279.84
2023-02-27T18:28:08.411Z,102279.97
2023-02-27T18:33:14.201Z,102283.03
2023-02-27T18:38:19.024Z,102281.94
2023-02-27T18:43:22.485Z,102282.16
2023-02-27T18:48:29.072Z,102299.56
2023-02-27T18:53:35.653Z,102295.69
2023-02-27T18:58:39.277Z,102296.44
2023-02-27T19:03:42.968Z,102283.41
2023-02-27T19:08:47.890Z,102281.09
2023-02-27T19:13:51.587Z,102293.97
2023-02-27T19:18:55.838Z,102294.28
2023-02-27T19:24:01.028Z,102299.69
2023-02-27T19:29:05.338Z,102305.00
2023-02-27T19:34:08.786Z,102298.38
2023-02-27T19:39:16.240Z,102293.59
2023-02-27T19:44:19.719Z,102293.84
2023-02-27T19:49:23.212Z,102305.59
2023-02-27T19:54:30.803Z,102293.41
2023-02-27T19:59:34.316Z,102300.38
2023-02-27T20:04:37.709Z,102297.91
2023-02-27T20:09:42.488Z,102287.44
2023-02-27T20:14:46.004Z,102292.31
2023-02-27T20:19:49.521Z,102305.59
2023-02-27T20:24:56.452Z,102302.09
2023-02-27T20:29:59.997Z,102304.34
2023-02-27T20:35:03.583Z,102310.41
2023-02-27T20:40:09.946Z,102311.63
2023-02-27T20:45:13.387Z,102310.47
2023-02-27T20:50:16.908Z,102307.59
2023-02-27T20:55:21.950Z,102311.16
2023-02-27T21:00:26.913Z,102312.81
2023-02-27T21:05:31.045Z,102307.22
2023-02-27T21:10:38.982Z,102310.41
2023-02-27T21:15:42.468Z,102316.38
2023-02-27T21:20:46.892Z,102321.91
2023-02-27T21:25:51.746Z,102320.78
2023-02-27T21:30:55.294Z,102324.41
2023-02-27T21:35:59.067Z,102334.38
2023-02-27T21:41:07.167Z,102337.22
2023-02-27T21:46:12.953Z,102337.84
2023-02-27T21:51:21.563Z,102339.03
2023-02-27T21:56:34.701Z,102350.63
2023-02-27T22:01:38.885Z,102343.91
2023-02-27T22:06:42.572Z,102352.56
2023-02-27T22:11:47.789Z,102347.50
2023-02-27T22:16:51.232Z,102356.13
2023-02-27T22:21:54.700Z,102350.81
2023-02-27T22:26:59.471Z,102364.03
2023-02-27T22:32:03.127Z,102358.50
2023-02-27T22:37:06.618Z,102353.94
2023-02-27T22:42:11.429Z,102360.78
2023-02-27T22:47:14.872Z,102369.41
2023-02-27T22:52:18.307Z,102355.53
2023-02-27T22:57:23.269Z,102352.97
2023-02-27T23:02:33.139Z,102360.19
2023-02-27T23:07:36.533Z,102358.75
2023-02-27T23:12:41.388Z,102363.72
2023-02-27T23:17:57.646Z,102372.56
2023-02-27T23:23:01.488Z,102379.13
2023-02-27T23:28:06.894Z,102388.44
2023-02-27T23:33:10.409Z,102393.69
2023-02-27T23:38:13.876Z,102388.72
2023-02-27T23:43:18.662Z,102384.56
2023-02-27T23:48:22.903Z,102396.44
2023-02-27T23:53:26.426Z,102398.56
2023-02-27T23:58:31.172Z,102395.91
